Time;durP1;ratioP1;P1;durP2;ratioP2;P2;SDS_P1;SDS_P2;PMS_P1;PMS_P2;Temp;Humidity;BMP_temperature;BMP_pressure;BME280_temperature;BME280_humidity;BME280_pressure;Samples;Min_cycle;Max_cycle;Signal;HPM_P1;HPM_P2
2024/04/21 00:03:58;;;;;;;10.77;3.10;;;8.20;88.60;;;;;;11058194;26;20342;-61
2024/04/21 00:09:04;;;;;;;10.27;2.67;;;8.20;87.90;;;;;;11060631;26;20246;-61
2024/04/21 00:14:12;;;;;;;9.97;2.30;;;8.20;88.20;;;;;;11058881;26;20242;-61
2024/04/21 00:19:17;;;;;;;5.83;2.30;;;8.20;87.60;;;;;;11057319;26;20238;-60
2024/04/21 00:24:28;;;;;;;9.73;2.07;;;8.20;87.60;;;;;;11059193;26;20238;-61
2024/04/21 00:29:36;;;;;;;8.00;1.87;;;8.30;88.00;;;;;;11059452;26;20245;-60
2024/04/21 00:34:41;;;;;;;11.20;2.17;;;8.20;87.50;;;;;;11055809;26;20239;-61
2024/04/21 00:39:47;;;;;;;10.50;2.10;;;8.10;88.30;;;;;;11059743;26;20234;-60
2024/04/21 00:44:55;;;;;;;8.23;1.90;;;8.10;88.30;;;;;;11056102;26;20359;-61
2024/04/21 00:50:00;;;;;;;6.57;2.37;;;8.10;87.70;;;;;;11056484;26;20238;-62
2024/04/21 00:55:06;;;;;;;10.97;2.03;;;8.10;88.00;;;;;;11056188;26;20244;-62
2024/04/21 01:00:16;;;;;;;12.43;2.27;;;8.00;87.30;;;;;;11059448;26;20236;-61
2024/04/21 01:05:22;;;;;;;11.30;2.60;;;8.00;88.50;;;;;;11057062;26;20244;-60
2024/04/21 01:10:28;;;;;;;7.33;2.03;;;7.90;88.40;;;;;;11055955;26;20238;-61
2024/04/21 01:15:36;;;;;;;8.60;2.13;;;7.90;87.80;;;;;;11058245;26;20350;-60
2024/04/21 01:20:41;;;;;;;8.93;2.07;;;8.00;88.10;;;;;;11060610;26;20245;-61
2024/04/21 01:25:49;;;;;;;6.07;1.60;;;7.90;87.60;;;;;;11056208;26;20250;-61
2024/04/21 01:30:54;;;;;;;9.70;2.00;;;7.80;87.00;;;;;;11053935;26;20237;-60
2024/04/21 01:36:01;;;;;;;8.77;1.77;;;7.70;87.90;;;;;;11056682;26;20913;-61
2024/04/21 01:41:09;;;;;;;8.90;1.70;;;7.60;87.30;;;;;;11056498;26;20325;-61
2024/04/21 01:46:14;;;;;;;10.50;1.60;;;7.60;87.50;;;;;;11053646;26;20324;-61
2024/04/21 01:51:19;;;;;;;8.07;2.10;;;7.60;87.20;;;;;;11052997;26;20312;-60
2024/04/21 01:56:27;;;;;;;9.83;2.37;;;7.60;87.30;;;;;;11062372;26;20242;-61
2024/04/21 02:01:33;;;;;;;9.73;2.00;;;7.60;86.80;;;;;;11065128;26;20924;-61
2024/04/21 02:06:38;;;;;;;7.40;1.20;;;7.60;86.20;;;;;;11062426;26;20327;-62
2024/04/21 02:11:46;;;;;;;9.17;2.40;;;7.60;86.80;;;;;;11061490;26;21418;-61
2024/04/21 02:16:51;;;;;;;8.37;1.40;;;7.60;86.60;;;;;;11063920;26;20307;-61
2024/04/21 02:21:57;;;;;;;7.10;1.50;;;7.50;86.00;;;;;;11059971;26;20254;-61
2024/04/21 02:27:05;;;;;;;7.70;1.77;;;7.50;86.20;;;;;;11060278;26;20238;-61
2024/04/21 02:32:11;;;;;;;7.50;1.70;;;7.50;86.00;;;;;;11059851;26;20242;-61
2024/04/21 02:37:16;;;;;;;10.33;1.90;;;7.50;85.30;;;;;;11060701;26;20323;-61
2024/04/21 02:42:24;;;;;;;6.63;1.63;;;7.50;85.60;;;;;;11061336;26;20377;-61
2024/04/21 02:47:29;;;;;;;7.03;1.70;;;7.50;85.40;;;;;;11063208;26;20234;-60
2024/04/21 02:52:35;;;;;;;7.53;1.50;;;7.50;85.00;;;;;;11063407;26;20245;-61
2024/04/21 02:57:43;;;;;;;6.23;1.43;;;7.50;85.00;;;;;;11061124;26;20308;-61
2024/04/21 03:02:48;;;;;;;4.53;1.40;;;7.40;85.20;;;;;;11057000;26;20343;-61
2024/04/21 03:07:54;;;;;;;10.53;1.70;;;7.40;85.00;;;;;;11063739;26;20237;-62
2024/04/21 03:13:02;;;;;;;4.97;1.50;;;7.40;85.40;;;;;;11059165;26;20686;-62
2024/04/21 03:18:07;;;;;;;7.37;1.70;;;7.30;85.50;;;;;;11059611;26;20313;-61
2024/04/21 03:23:12;;;;;;;7.93;1.83;;;7.30;85.60;;;;;;11062829;26;22213;-61
2024/04/21 03:28:20;;;;;;;11.50;2.30;;;7.30;85.70;;;;;;11061899;26;20233;-61
2024/04/21 03:33:26;;;;;;;7.07;1.67;;;7.40;85.90;;;;;;11061269;26;20241;-61
2024/04/21 03:38:32;;;;;;;7.37;1.87;;;7.40;86.00;;;;;;11065134;26;20229;-62
2024/04/21 03:43:40;;;;;;;7.37;1.70;;;7.40;85.70;;;;;;11060652;26;20237;-61
2024/04/21 03:48:45;;;;;;;9.07;2.03;;;7.40;85.50;;;;;;11058126;26;20241;-62
2024/04/21 03:53:51;;;;;;;9.67;1.80;;;7.40;85.60;;;;;;11061153;26;20242;-61
2024/04/21 03:58:59;;;;;;;8.87;1.70;;;7.40;85.40;;;;;;11051711;26;20339;-60
2024/04/21 04:04:05;;;;;;;6.53;1.60;;;7.30;85.60;;;;;;11048029;26;20257;-61
2024/04/21 04:09:10;;;;;;;8.30;1.93;;;7.30;85.80;;;;;;11049804;26;20254;-60
2024/04/21 04:14:18;;;;;;;6.43;1.53;;;7.30;85.90;;;;;;11048119;26;20254;-60
2024/04/21 04:19:24;;;;;;;4.63;1.67;;;7.20;86.00;;;;;;11049342;26;20250;-61
2024/04/21 04:24:29;;;;;;;8.63;2.27;;;7.30;86.30;;;;;;11046546;26;20247;-60
2024/04/21 04:29:37;;;;;;;10.40;1.90;;;7.30;86.40;;;;;;11058409;26;20237;-61
2024/04/21 04:34:43;;;;;;;7.17;1.90;;;7.30;86.20;;;;;;11056141;26;20252;-61
2024/04/21 04:39:48;;;;;;;3.27;1.53;;;7.40;86.30;;;;;;11060507;26;20336;-61
2024/04/21 04:44:56;;;;;;;10.67;2.10;;;7.40;86.20;;;;;;11059426;26;20241;-61
2024/04/21 04:50:02;;;;;;;7.63;1.90;;;7.30;86.60;;;;;;11057579;26;20342;-61
2024/04/21 04:55:08;;;;;;;7.37;2.27;;;7.40;86.70;;;;;;11062015;26;20618;-61
2024/04/21 05:00:17;;;;;;;7.17;1.70;;;7.40;86.80;;;;;;11000523;26;20245;-62
2024/04/21 05:05:23;;;;;;;7.10;2.30;;;7.40;86.70;;;;;;10996483;26;20250;-62
2024/04/21 05:10:29;;;;;;;7.90;1.93;;;7.40;86.60;;;;;;10997386;26;20597;-61
2024/04/21 05:15:37;;;;;;;5.70;1.60;;;7.50;87.20;;;;;;10997602;26;20362;-61
2024/04/21 05:20:42;;;;;;;4.20;1.90;;;7.50;87.00;;;;;;10997952;26;20239;-61
2024/04/21 05:25:47;;;;;;;5.80;1.93;;;7.60;87.00;;;;;;10995679;26;20238;-63
2024/04/21 05:30:55;;;;;;;7.17;1.93;;;7.60;87.30;;;;;;11003586;26;20253;-61
2024/04/21 05:41:11;;;;;;;8.43;2.00;;;7.70;86.80;;;;;;10934578;26;20359;-65
2024/04/21 05:46:19;;;;;;;6.60;2.40;;;7.70;87.20;;;;;;10953982;26;20356;-66
2024/04/21 05:51:25;;;;;;;8.40;1.77;;;7.90;87.20;;;;;;11003783;26;20239;-66
2024/04/21 05:56:31;;;;;;;5.53;2.20;;;8.00;86.90;;;;;;11021663;26;21657;-66
2024/04/21 06:01:39;;;;;;;5.10;1.63;;;7.90;86.40;;;;;;11029252;26;20328;-63
2024/04/21 06:06:44;;;;;;;5.80;2.20;;;7.90;86.50;;;;;;11027503;26;20322;-63
2024/04/21 06:11:49;;;;;;;8.47;2.17;;;8.00;86.30;;;;;;11015912;26;20288;-65
2024/04/21 06:16:57;;;;;;;6.53;1.87;;;8.00;86.30;;;;;;11009809;26;20603;-65
2024/04/21 06:22:03;;;;;;;3.90;1.70;;;8.00;86.20;;;;;;11048576;26;20312;-64
2024/04/21 06:27:08;;;;;;;5.80;1.83;;;8.00;88.00;;;;;;11077020;26;20336;-63
2024/04/21 06:32:16;;;;;;;6.40;1.87;;;7.90;87.60;;;;;;11064969;26;20263;-65
2024/04/21 06:37:21;;;;;;;10.07;2.03;;;7.90;86.60;;;;;;11065661;26;20331;-65
2024/04/21 06:42:27;;;;;;;8.93;2.40;;;8.00;86.60;;;;;;11067583;26;20235;-66
2024/04/21 06:47:35;;;;;;;5.53;2.03;;;8.10;85.90;;;;;;11004335;26;20234;-65
2024/04/21 06:52:41;;;;;;;6.97;2.07;;;8.10;85.60;;;;;;11000640;26;20239;-67
2024/04/21 06:57:47;;;;;;;9.87;2.47;;;8.00;85.40;;;;;;10993624;26;20353;-68
2024/04/21 07:02:55;;;;;;;10.27;2.90;;;8.10;85.60;;;;;;11051331;26;20235;-66
2024/04/21 07:08:00;;;;;;;8.87;2.97;;;8.10;85.30;;;;;;11096154;26;20327;-64
2024/04/21 07:13:06;;;;;;;10.23;3.20;;;8.10;85.30;;;;;;11085994;26;20332;-65
2024/04/21 07:18:14;;;;;;;7.13;3.10;;;8.10;85.40;;;;;;11069144;26;20239;-65
2024/04/21 07:23:19;;;;;;;9.02;4.00;;;8.20;85.50;;;;;;11025407;26;21799;-67
2024/04/21 07:28:25;;;;;;;10.03;3.67;;;8.20;85.10;;;;;;11006946;26;20342;-67
2024/04/21 07:33:33;;;;;;;9.23;3.83;;;8.40;85.20;;;;;;11001375;26;20733;-67
2024/04/21 07:38:38;;;;;;;6.17;3.40;;;8.50;84.70;;;;;;10948132;26;20360;-66
2024/04/21 07:43:44;;;;;;;6.20;3.20;;;8.50;84.40;;;;;;10946233;26;20337;-68
2024/04/21 07:48:52;;;;;;;4.53;2.77;;;8.50;85.60;;;;;;10929680;26;20247;-67
2024/04/21 07:53:58;;;;;;;6.07;2.50;;;8.50;84.70;;;;;;10925043;26;20243;-67
2024/04/21 07:59:04;;;;;;;5.10;2.57;;;8.50;85.00;;;;;;10938699;26;20247;-68
2024/04/21 08:04:12;;;;;;;3.40;2.65;;;8.50;85.20;;;;;;10984881;26;20324;-67
2024/04/21 08:09:17;;;;;;;4.33;3.07;;;8.60;84.80;;;;;;10955753;26;20321;-68
2024/04/21 08:14:35;;;;;;;5.07;2.90;;;8.70;85.00;;;;;;10933249;26;20303;-68
2024/04/21 08:19:43;;;;;;;5.30;2.80;;;8.70;85.70;;;;;;10932569;26;20316;-68
2024/04/21 08:24:48;;;;;;;3.60;2.90;;;8.80;84.90;;;;;;10923501;26;20235;-67
2024/04/21 08:29:54;;;;;;;4.90;3.00;;;8.80;84.40;;;;;;10917200;26;21148;-66
2024/04/21 08:35:02;;;;;;;7.03;4.50;;;8.70;84.40;;;;;;10921343;26;20912;-68
2024/04/21 08:40:08;;;;;;;6.10;3.47;;;8.60;84.30;;;;;;10922596;26;20246;-68
2024/04/21 08:45:14;;;;;;;6.17;3.30;;;8.50;84.40;;;;;;10921038;26;20239;-69
2024/04/21 08:50:24;;;;;;;5.97;3.40;;;8.50;84.00;;;;;;10924850;26;20242;-67
2024/04/21 08:55:32;;;;;;;3.67;3.30;;;8.50;84.80;;;;;;10922157;26;20238;-65
2024/04/21 09:00:39;;;;;;;4.60;3.10;;;8.60;84.30;;;;;;10919509;26;20329;-68
2024/04/21 09:05:54;;;;;;;4.93;3.27;;;8.60;83.60;;;;;;10920561;26;20248;-67
2024/04/21 09:10:59;;;;;;;3.17;2.77;;;8.60;84.00;;;;;;10924130;26;20301;-68
2024/04/21 09:16:05;;;;;;;2.87;2.57;;;8.70;83.60;;;;;;10922692;26;20235;-66
2024/04/21 09:21:13;;;;;;;3.23;2.37;;;8.90;84.70;;;;;;10924881;26;21958;-69
2024/04/21 09:26:20;;;;;;;2.93;2.50;;;9.10;83.00;;;;;;10921979;26;20243;-68
2024/04/21 09:31:28;;;;;;;3.30;2.73;;;9.10;82.80;;;;;;10925048;26;20267;-67
2024/04/21 09:36:36;;;;;;;3.83;2.70;;;9.20;82.40;;;;;;10980350;26;20344;-60
2024/04/21 09:41:50;;;;;;;2.50;2.20;;;9.40;83.30;;;;;;11018880;26;20896;-61
2024/04/21 09:46:55;;;;;;;2.57;2.33;;;9.60;81.80;;;;;;11005131;26;20251;-63
2024/04/21 09:52:04;;;;;;;2.33;2.13;;;9.90;83.70;;;;;;10999640;26;20342;-63
2024/04/21 09:57:13;;;;;;;2.40;2.17;;;10.20;81.90;;;;;;10977139;26;20236;-61
2024/04/21 10:02:23;;;;;;;5.13;3.00;;;10.30;81.10;;;;;;11018966;26;20231;-62
2024/04/21 10:07:34;;;;;;;2.95;2.30;;;10.40;79.20;;;;;;10984767;26;20247;-61
2024/04/21 10:12:40;;;;;;;2.30;2.10;;;10.40;77.80;;;;;;10970128;26;20244;-62
2024/04/21 10:17:56;;;;;;;2.80;2.22;;;10.60;78.90;;;;;;10979562;26;20247;-61
2024/04/21 10:23:06;;;;;;;4.67;3.23;;;10.60;78.20;;;;;;10974521;26;20234;-63
2024/04/21 10:28:13;;;;;;;3.03;2.63;;;10.50;77.90;;;;;;10979561;26;20251;-60
2024/04/21 10:33:18;;;;;;;2.60;2.40;;;10.60;79.40;;;;;;10962193;26;20239;-71
2024/04/21 10:38:26;;;;;;;3.90;2.78;;;10.80;78.60;;;;;;10960640;26;20239;-61
2024/04/21 10:43:32;;;;;;;3.08;2.28;;;11.10;78.30;;;;;;10962064;26;20234;-61
2024/04/21 10:48:38;;;;;;;2.45;2.15;;;11.20;77.10;;;;;;10956552;26;20678;-61
2024/04/21 10:53:46;;;;;;;3.13;2.30;;;11.10;76.80;;;;;;10961251;26;20243;-60
2024/04/21 10:58:51;;;;;;;2.00;1.80;;;11.00;76.30;;;;;;10968375;26;20351;-60
2024/04/21 11:03:57;;;;;;;2.35;2.15;;;10.80;75.90;;;;;;10965785;26;20818;-62
2024/04/21 11:09:06;;;;;;;5.63;2.58;;;11.10;76.60;;;;;;10949120;26;20881;-60
2024/04/21 11:14:11;;;;;;;1.70;1.60;;;11.50;77.20;;;;;;10947369;26;20742;-60
2024/04/21 11:19:16;;;;;;;4.38;2.63;;;11.90;76.90;;;;;;10948232;26;20351;-63
2024/04/21 11:24:25;;;;;;;3.50;2.13;;;12.20;75.40;;;;;;10945676;26;20856;-59
2024/04/21 11:29:30;;;;;;;2.55;1.95;;;12.20;74.90;;;;;;10949374;26;20333;-61
2024/04/21 11:34:35;;;;;;;3.30;2.65;;;12.30;75.30;;;;;;10950770;26;20235;-61
2024/04/21 11:39:44;;;;;;;4.68;3.13;;;12.00;74.20;;;;;;10936841;26;20353;-63
2024/04/21 11:44:49;;;;;;;2.80;2.20;;;11.70;73.80;;;;;;10932108;26;20326;-64
2024/04/21 11:49:55;;;;;;;2.50;1.92;;;11.90;73.10;;;;;;10932224;26;20247;-70
2024/04/21 11:55:03;;;;;;;3.03;2.13;;;12.00;74.20;;;;;;10956325;26;20357;-72
2024/04/21 12:00:10;;;;;;;1.98;1.77;;;12.00;73.40;;;;;;10967398;26;21592;-65
2024/04/21 12:05:15;;;;;;;2.33;2.08;;;12.30;74.90;;;;;;10935744;26;20251;-67
2024/04/21 12:10:23;;;;;;;1.83;1.73;;;12.50;73.40;;;;;;10931406;26;20239;-66
2024/04/21 12:15:29;;;;;;;2.00;1.80;;;12.50;72.90;;;;;;10937828;26;20350;-65
2024/04/21 12:20:36;;;;;;;4.53;1.92;;;12.40;72.50;;;;;;10936504;26;20240;-67
2024/04/21 12:25:44;;;;;;;2.33;1.90;;;12.80;74.10;;;;;;10937663;26;20896;-61
2024/04/21 12:30:49;;;;;;;2.40;1.75;;;13.30;72.10;;;;;;10939690;26;20337;-60
2024/04/21 12:35:56;;;;;;;2.55;2.00;;;13.60;73.70;;;;;;10932639;26;20365;-60
2024/04/21 12:41:08;;;;;;;1.55;1.42;;;13.90;73.10;;;;;;10933023;26;20239;-60
2024/04/21 12:46:14;;;;;;;1.42;1.30;;;13.70;69.20;;;;;;10936732;26;20238;-62
2024/04/21 12:51:19;;;;;;;2.90;1.90;;;13.40;69.10;;;;;;10933854;26;20247;-62
2024/04/21 12:56:27;;;;;;;2.00;1.80;;;13.30;68.50;;;;;;10928826;26;20247;-61
2024/04/21 13:01:33;;;;;;;2.42;1.42;;;13.10;69.50;;;;;;10927217;26;20252;-63
2024/04/21 13:06:38;;;;;;;1.63;1.52;;;13.50;68.90;;;;;;10929608;26;21669;-64
2024/04/21 13:11:47;;;;;;;2.50;1.50;;;14.10;68.10;;;;;;10930986;26;20239;-62
2024/04/21 13:16:52;;;;;;;1.67;1.45;;;14.70;67.20;;;;;;10935736;26;20235;-62
2024/04/21 13:21:57;;;;;;;2.55;1.90;;;14.40;66.50;;;;;;10934166;26;20230;-63
2024/04/21 13:27:06;;;;;;;3.42;2.25;;;13.60;64.90;;;;;;10934169;26;20876;-62
2024/04/21 13:32:11;;;;;;;2.78;2.22;;;13.00;69.40;;;;;;10934646;26;20239;-62
2024/04/21 13:37:16;;;;;;;2.60;2.40;;;12.60;71.20;;;;;;10933495;26;20243;-62
2024/04/21 13:42:24;;;;;;;3.67;1.90;;;12.30;71.80;;;;;;10932336;26;20297;-62
2024/04/21 13:47:30;;;;;;;2.53;2.33;;;12.70;71.80;;;;;;10932909;26;20360;-62
2024/04/21 13:52:37;;;;;;;2.30;1.90;;;13.00;71.20;;;;;;10942275;26;20231;-62
2024/04/21 13:57:45;;;;;;;1.90;1.75;;;12.80;70.40;;;;;;10943699;26;20352;-61
2024/04/21 14:02:51;;;;;;;1.65;1.55;;;12.70;70.30;;;;;;10941606;26;20239;-61
2024/04/21 14:07:56;;;;;;;2.13;1.50;;;12.80;69.20;;;;;;10939408;26;20867;-63
2024/04/21 14:13:04;;;;;;;2.00;1.70;;;13.40;68.60;;;;;;10940599;26;20322;-65
2024/04/21 14:18:10;;;;;;;1.60;1.50;;;13.50;64.80;;;;;;10945140;26;20350;-62
2024/04/21 14:23:15;;;;;;;1.40;1.30;;;13.10;65.50;;;;;;10944327;26;20240;-63
2024/04/21 14:28:23;;;;;;;1.30;1.20;;;12.90;66.30;;;;;;10948964;26;20326;-63
2024/04/21 14:33:29;;;;;;;1.70;1.30;;;13.90;66.00;;;;;;10950751;26;20332;-63
2024/04/21 14:38:34;;;;;;;2.72;1.30;;;14.90;64.40;;;;;;10945603;26;20348;-64
2024/04/21 14:43:42;;;;;;;1.63;1.50;;;14.70;61.20;;;;;;10951023;26;20251;-66
2024/04/21 14:48:48;;;;;;;1.33;1.17;;;14.10;59.20;;;;;;10950208;26;22191;-64
2024/04/21 14:53:55;;;;;;;2.17;1.48;;;14.60;61.70;;;;;;10952036;26;20737;-62
2024/04/21 14:59:03;;;;;;;1.15;1.00;;;15.40;59.80;;;;;;10950980;26;20240;-63
2024/04/21 15:04:09;;;;;;;1.50;1.25;;;16.00;58.30;;;;;;10951184;26;20235;-61
2024/04/21 15:09:14;;;;;;;2.72;1.48;;;16.00;57.40;;;;;;10951017;26;22513;-62
2024/04/21 15:14:22;;;;;;;1.50;1.33;;;15.50;57.90;;;;;;10954040;26;20791;-62
2024/04/21 15:19:28;;;;;;;1.48;1.38;;;14.90;58.10;;;;;;10951688;26;20243;-60
2024/04/21 15:24:33;;;;;;;1.58;1.20;;;14.40;57.50;;;;;;10952598;26;20239;-62
2024/04/21 15:29:41;;;;;;;1.73;1.40;;;14.60;58.20;;;;;;10950212;26;20340;-61
2024/04/21 15:34:47;;;;;;;1.55;1.45;;;15.40;58.30;;;;;;10955676;26;20885;-62
2024/04/21 15:39:52;;;;;;;2.25;1.30;;;15.50;57.20;;;;;;10949014;26;20251;-62
2024/04/21 15:45:01;;;;;;;1.55;1.45;;;15.10;56.30;;;;;;10947475;26;20243;-61
2024/04/21 15:50:07;;;;;;;1.80;1.42;;;14.70;55.50;;;;;;10949956;26;20328;-60
2024/04/21 15:55:14;;;;;;;1.83;1.30;;;14.30;55.90;;;;;;10949373;26;22036;-62
2024/04/21 16:00:22;;;;;;;2.00;1.30;;;14.30;55.40;;;;;;10949009;26;20349;-61
2024/04/21 16:05:27;;;;;;;1.35;1.20;;;15.00;56.70;;;;;;10949068;26;20243;-62
2024/04/21 16:10:33;;;;;;;1.58;1.40;;;15.80;55.60;;;;;;10945418;26;20329;-61
2024/04/21 16:15:41;;;;;;;2.28;1.40;;;16.40;54.50;;;;;;10943536;26;20243;-60
2024/04/21 16:20:47;;;;;;;2.00;1.10;;;16.70;55.20;;;;;;10943132;26;21697;-60
2024/04/21 16:25:52;;;;;;;3.38;1.77;;;16.80;54.60;;;;;;10943973;26;20239;-63
2024/04/21 16:31:01;;;;;;;1.67;0.98;;;17.50;54.50;;;;;;10944718;26;20342;-60
2024/04/21 16:36:09;;;;;;;1.60;1.30;;;17.80;53.50;;;;;;10948825;26;20698;-61
2024/04/21 16:41:15;;;;;;;2.72;1.20;;;17.70;52.10;;;;;;10945658;26;20569;-60
2024/04/21 16:46:25;;;;;;;1.35;1.25;;;17.00;51.70;;;;;;10946124;26;20243;-62
2024/04/21 16:51:33;;;;;;;3.85;1.90;;;16.30;51.00;;;;;;10945150;26;20321;-62
2024/04/21 16:56:45;;;;;;;1.50;1.13;;;15.70;51.90;;;;;;10946510;26;20340;-62
2024/04/21 17:01:53;;;;;;;2.53;1.52;;;15.50;52.10;;;;;;10944448;26;20324;-61
2024/04/21 17:07:01;;;;;;;1.38;1.27;;;15.20;52.10;;;;;;10944418;26;21044;-61
2024/04/21 17:12:07;;;;;;;2.05;1.60;;;14.90;52.60;;;;;;10944664;26;20328;-62
2024/04/21 17:17:17;;;;;;;2.03;1.35;;;14.70;52.70;;;;;;10944829;26;22487;-62
2024/04/21 17:22:24;;;;;;;1.40;1.20;;;14.60;51.70;;;;;;10947535;26;20242;-63
2024/04/21 17:27:29;;;;;;;3.70;1.83;;;14.50;52.10;;;;;;10949925;26;22002;-62
2024/04/21 17:32:37;;;;;;;2.38;1.25;;;14.50;52.10;;;;;;10952762;26;21519;-60
2024/04/21 17:37:45;;;;;;;2.30;1.60;;;14.40;52.10;;;;;;10959807;26;20243;-67
2024/04/21 17:42:51;;;;;;;1.75;1.50;;;14.20;51.50;;;;;;10974922;26;20335;-67
2024/04/21 17:48:03;;;;;;;2.10;1.65;;;13.90;52.20;;;;;;10985565;26;20310;-67
2024/04/21 17:53:08;;;;;;;1.73;1.42;;;13.50;52.10;;;;;;10990562;26;20710;-68
2024/04/21 17:58:14;;;;;;;1.70;1.60;;;13.20;53.00;;;;;;10997706;26;20616;-67
2024/04/21 18:03:24;;;;;;;3.00;1.88;;;12.90;52.10;;;;;;10994526;26;20600;-68
2024/04/21 18:08:29;;;;;;;1.90;1.70;;;12.70;52.40;;;;;;10995215;26;20590;-66
2024/04/21 18:13:35;;;;;;;2.00;1.50;;;12.60;52.90;;;;;;11001402;26;20242;-68
2024/04/21 18:18:45;;;;;;;1.88;1.63;;;12.40;52.50;;;;;;10991248;26;20364;-67
2024/04/21 18:23:50;;;;;;;1.80;1.58;;;12.20;53.00;;;;;;10989007;26;20738;-67
2024/04/21 18:28:56;;;;;;;1.73;1.50;;;12.00;53.20;;;;;;10996120;26;20353;-68
2024/04/21 18:34:04;;;;;;;3.85;1.75;;;11.90;53.10;;;;;;10990008;26;20236;-68
2024/04/21 18:39:10;;;;;;;2.63;2.13;;;11.80;52.90;;;;;;10999554;26;20361;-67
2024/04/21 18:44:15;;;;;;;4.13;2.50;;;11.70;52.60;;;;;;10988133;26;20238;-66
2024/04/21 18:49:24;;;;;;;3.42;2.30;;;11.50;52.70;;;;;;10978847;26;20357;-66
2024/04/21 18:54:29;;;;;;;2.63;2.20;;;11.40;53.00;;;;;;10976319;26;20343;-66
2024/04/21 18:59:38;;;;;;;2.30;1.98;;;11.30;53.00;;;;;;10992965;26;20235;-66
2024/04/21 19:04:47;;;;;;;3.80;2.72;;;11.20;53.40;;;;;;10972560;26;20329;-65
2024/04/21 19:09:53;;;;;;;3.65;2.50;;;11.10;53.60;;;;;;10972452;26;20239;-64
2024/04/21 19:14:59;;;;;;;3.60;3.13;;;10.90;53.90;;;;;;10985713;26;20282;-66
2024/04/21 19:20:09;;;;;;;4.38;2.97;;;10.80;54.30;;;;;;10955323;26;20247;-68
2024/04/21 19:25:15;;;;;;;4.13;3.22;;;10.70;54.50;;;;;;10930440;26;20363;-67
2024/04/21 19:30:21;;;;;;;3.42;3.10;;;10.50;55.00;;;;;;10935085;26;20244;-66
2024/04/21 19:35:30;;;;;;;4.05;3.20;;;10.40;55.20;;;;;;10941760;26;20235;-67
2024/04/21 19:40:36;;;;;;;3.83;3.17;;;10.30;55.40;;;;;;10940021;26;20243;-68
2024/04/21 19:45:41;;;;;;;4.00;3.17;;;10.20;55.80;;;;;;10942489;26;20239;-66
2024/04/21 19:50:58;;;;;;;4.43;3.10;;;10.00;56.00;;;;;;10937708;26;20231;-68
2024/04/21 19:56:09;;;;;;;4.70;3.20;;;9.90;57.10;;;;;;10933832;26;20357;-67
2024/04/21 20:01:15;;;;;;;3.87;3.47;;;9.80;57.30;;;;;;10934684;26;20825;-69
2024/04/21 20:06:23;;;;;;;3.97;3.43;;;9.70;57.50;;;;;;10936586;26;22213;-67
2024/04/21 20:11:29;;;;;;;4.90;4.33;;;9.70;57.90;;;;;;10940508;26;20344;-68
2024/04/21 20:21:58;;;;;;;5.13;4.30;;;9.60;58.10;;;;;;10934300;26;20243;-66
2024/04/21 20:27:04;;;;;;;5.20;4.33;;;9.50;58.20;;;;;;10875506;26;20239;-66
2024/04/21 20:32:09;;;;;;;6.70;5.30;;;9.40;58.30;;;;;;10933530;26;22413;-66
2024/04/21 20:37:18;;;;;;;6.13;5.47;;;9.30;58.60;;;;;;10932039;26;20239;-67
2024/04/21 20:42:24;;;;;;;6.03;5.13;;;9.30;58.80;;;;;;10936644;26;20243;-65
2024/04/21 20:47:30;;;;;;;6.40;5.03;;;9.20;59.00;;;;;;10933011;26;22022;-66
2024/04/21 20:52:38;;;;;;;5.97;5.33;;;9.10;59.50;;;;;;10928335;26;20247;-65
2024/04/21 20:57:43;;;;;;;7.60;5.60;;;9.00;59.60;;;;;;10886047;26;20239;-65
2024/04/21 21:02:48;;;;;;;6.57;5.87;;;9.00;60.00;;;;;;10930949;26;20242;-63
2024/04/21 21:07:56;;;;;;;6.47;5.50;;;8.90;60.20;;;;;;10932002;26;20247;-64
2024/04/21 21:13:02;;;;;;;5.67;5.17;;;8.90;60.40;;;;;;10933257;26;20298;-64
2024/04/21 21:18:08;;;;;;;5.40;4.83;;;8.90;60.30;;;;;;10933944;26;20349;-64
2024/04/21 21:23:17;;;;;;;6.93;5.87;;;8.80;60.50;;;;;;10933782;26;20223;-65
2024/04/21 21:28:25;;;;;;;6.70;5.43;;;8.80;60.80;;;;;;10935285;26;20282;-64
2024/04/21 21:33:31;;;;;;;5.43;4.40;;;8.70;61.10;;;;;;10939216;26;20345;-62
2024/04/21 21:38:41;;;;;;;5.10;4.37;;;8.60;60.90;;;;;;10937504;26;20243;-63
2024/04/21 21:43:47;;;;;;;5.00;4.10;;;8.60;61.00;;;;;;10937961;26;20286;-64
2024/04/21 21:48:53;;;;;;;6.30;4.60;;;8.50;60.50;;;;;;10935924;26;20235;-63
2024/04/21 21:54:01;;;;;;;3.67;3.33;;;8.50;61.60;;;;;;10933706;26;20342;-63
2024/04/21 21:59:06;;;;;;;3.93;2.87;;;8.50;60.30;;;;;;10936190;26;20264;-64
2024/04/21 22:04:11;;;;;;;3.43;2.80;;;8.50;60.00;;;;;;10935687;26;20321;-64
2024/04/21 22:09:20;;;;;;;4.27;3.30;;;8.60;60.10;;;;;;10933490;26;20234;-63
2024/04/21 22:14:26;;;;;;;4.00;3.50;;;8.60;60.10;;;;;;10941654;26;20345;-63
2024/04/21 22:19:31;;;;;;;4.13;3.20;;;8.60;59.90;;;;;;10941111;26;20893;-63
2024/04/21 22:24:40;;;;;;;3.63;3.10;;;8.60;60.10;;;;;;10942875;26;20333;-64
2024/04/21 22:29:48;;;;;;;2.97;2.70;;;8.60;60.50;;;;;;10944845;26;21476;-63
2024/04/21 22:34:54;;;;;;;4.20;3.33;;;8.50;60.60;;;;;;10943759;26;20305;-64
2024/04/21 22:40:02;;;;;;;3.87;3.30;;;8.50;60.50;;;;;;10940872;26;20294;-64
2024/04/21 22:45:08;;;;;;;3.40;3.10;;;8.50;60.90;;;;;;10944617;26;20242;-67
2024/04/21 22:50:13;;;;;;;3.60;3.10;;;8.50;61.20;;;;;;10942906;26;20235;-66
2024/04/21 22:55:21;;;;;;;3.53;3.13;;;8.60;61.40;;;;;;10941855;26;20243;-68
2024/04/21 23:00:27;;;;;;;3.13;2.83;;;8.50;61.40;;;;;;10943588;26;20242;-66
2024/04/21 23:05:32;;;;;;;3.80;3.30;;;8.50;61.50;;;;;;10940294;26;22747;-66
2024/04/21 23:10:40;;;;;;;3.47;3.17;;;8.50;61.70;;;;;;10942022;26;20324;-67
2024/04/21 23:15:46;;;;;;;4.13;3.43;;;8.50;61.90;;;;;;10943237;26;20904;-67
2024/04/21 23:20:51;;;;;;;3.40;3.07;;;8.50;62.20;;;;;;10942423;26;20235;-67
2024/04/21 23:25:59;;;;;;;3.17;2.80;;;8.50;62.90;;;;;;10939437;26;22038;-67
2024/04/21 23:31:05;;;;;;;4.30;3.10;;;8.40;63.10;;;;;;10939917;26;20342;-67
2024/04/21 23:36:12;;;;;;;4.37;3.10;;;8.40;63.30;;;;;;10940215;26;20239;-67
2024/04/21 23:41:20;;;;;;;4.93;3.63;;;8.40;63.80;;;;;;10939102;26;20231;-61
2024/04/21 23:46:25;;;;;;;3.67;3.37;;;8.40;64.20;;;;;;10939232;26;20318;-61
2024/04/21 23:51:30;;;;;;;3.77;3.37;;;8.30;64.20;;;;;;10942245;26;21151;-61
2024/04/21 23:56:38;;;;;;;4.63;3.40;;;8.30;64.50;;;;;;10940261;26;20247;-63
